createdAt,value
2023-02-19T00:02:53.603Z,95.45
2023-02-19T00:06:02.942Z,93.70
2023-02-19T00:09:11.700Z,94.00
2023-02-19T00:12:17.672Z,93.15
2023-02-19T00:15:22.739Z,94.38
2023-02-19T00:18:27.851Z,94.22
2023-02-19T00:21:33.913Z,92.57
2023-02-19T00:24:39.250Z,95.40
2023-02-19T00:27:44.692Z,96.28
2023-02-19T00:30:50.215Z,93.25
2023-02-19T00:33:59.072Z,93.03
2023-02-19T00:37:04.652Z,94.50
2023-02-19T00:40:10.341Z,94.75
2023-02-19T00:43:16.098Z,92.45
2023-02-19T00:46:28.934Z,95.28
2023-02-19T00:49:34.513Z,92.13
2023-02-19T00:52:40.259Z,90.95
2023-02-19T00:55:46.134Z,93.45
2023-02-19T00:58:52.543Z,94.07
2023-02-19T01:01:58.451Z,97.72
2023-02-19T01:05:04.563Z,92.82
2023-02-19T01:08:10.935Z,93.80
2023-02-19T01:11:17.364Z,94.88
2023-02-19T01:14:22.630Z,95.18
2023-02-19T01:17:28.007Z,95.68
2023-02-19T01:20:33.637Z,93.75
2023-02-19T01:23:39.220Z,91.38
2023-02-19T01:26:45.255Z,91.68
2023-02-19T01:29:51.282Z,92.55
2023-02-19T01:32:56.939Z,93.03
2023-02-19T01:36:07.555Z,91.53
2023-02-19T01:39:13.611Z,91.93
2023-02-19T01:42:18.906Z,88.68
2023-02-19T01:45:26.356Z,85.15
2023-02-19T01:48:38.578Z,86.60
2023-02-19T01:51:53.528Z,86.47
2023-02-19T01:55:01.888Z,89.32
2023-02-19T01:58:09.616Z,85.50
2023-02-19T02:01:16.710Z,86.68
2023-02-19T02:04:21.998Z,83.18
2023-02-19T02:07:46.390Z,85.75
2023-02-19T02:10:53.243Z,79.75
2023-02-19T02:14:00.659Z,79.00
2023-02-19T02:17:35.169Z,79.95
2023-02-19T02:20:58.974Z,74.28
2023-02-19T02:24:55.550Z,73.82
2023-02-19T02:28:23.382Z,72.78
2023-02-19T02:31:40.347Z,74.05
2023-02-19T02:35:19.589Z,69.95
2023-02-19T02:38:30.031Z,71.18
2023-02-19T02:41:35.853Z,71.90
2023-02-19T02:44:42.494Z,74.00
2023-02-19T02:47:57.767Z,63.55
2023-02-19T02:51:19.301Z,62.92
2023-02-19T02:54:53.604Z,68.45
2023-02-19T02:58:00.645Z,71.97
2023-02-19T03:01:34.968Z,69.32
2023-02-19T03:05:13.777Z,61.10
2023-02-19T03:08:34.642Z,64.07
2023-02-19T03:12:02.160Z,55.78
2023-02-19T03:15:29.362Z,47.20
2023-02-19T03:18:57.417Z,45.95
2023-02-19T03:22:22.888Z,54.15
2023-02-19T03:25:51.220Z,50.15
2023-02-19T03:29:23.134Z,50.92
2023-02-19T03:32:37.487Z,51.17
2023-02-19T03:35:50.261Z,50.03
2023-02-19T03:39:02.704Z,50.80
2023-02-19T03:42:14.773Z,49.90
2023-02-19T03:45:30.719Z,43.42
2023-02-19T03:48:54.727Z,42.33
2023-02-19T03:52:03.329Z,41.05
2023-02-19T03:55:12.731Z,37.33
2023-02-19T03:58:41.289Z,38.83
2023-02-19T04:01:56.851Z,37.10
2023-02-19T04:05:25.425Z,35.15
2023-02-19T04:08:35.964Z,34.60
2023-02-19T04:11:44.092Z,33.97
2023-02-19T04:15:02.468Z,35.05
2023-02-19T04:18:11.516Z,33.97
2023-02-19T04:21:19.110Z,32.35
2023-02-19T04:24:43.463Z,30.70
2023-02-19T04:27:49.310Z,33.25
2023-02-19T04:30:54.934Z,32.28
2023-02-19T04:34:00.615Z,32.35
2023-02-19T04:37:06.817Z,37.30
2023-02-19T04:40:12.196Z,41.95
2023-02-19T04:43:17.580Z,39.70
2023-02-19T04:46:22.951Z,41.30
2023-02-19T04:49:28.298Z,44.55
2023-02-19T04:52:33.744Z,43.95
2023-02-19T04:55:39.980Z,44.40
2023-02-19T04:58:45.793Z,43.95
2023-02-19T05:01:51.362Z,46.75
2023-02-19T05:04:56.739Z,45.47
2023-02-19T05:08:02.125Z,45.13
2023-02-19T05:11:11.322Z,45.53
2023-02-19T05:14:17.704Z,44.42
2023-02-19T05:17:23.249Z,46.33
2023-02-19T05:20:28.411Z,43.97
2023-02-19T05:23:34.152Z,45.53
2023-02-19T05:26:39.352Z,41.97
2023-02-19T05:29:44.970Z,44.40
2023-02-19T05:32:50.472Z,42.22
2023-02-19T05:35:56.372Z,39.90
2023-02-19T05:39:01.731Z,44.78
2023-02-19T05:42:07.432Z,42.03
2023-02-19T05:45:13.270Z,47.92
2023-02-19T05:48:18.386Z,45.92
2023-02-19T05:51:25.669Z,44.40
2023-02-19T05:54:31.421Z,44.72
2023-02-19T05:57:48.181Z,43.05
2023-02-19T06:00:54.722Z,45.80
2023-02-19T06:04:00.605Z,42.83
2023-02-19T06:07:05.646Z,44.05
2023-02-19T06:10:12.444Z,40.05
2023-02-19T06:13:17.980Z,41.38
2023-02-19T06:16:23.480Z,38.75
2023-02-19T06:19:30.107Z,38.55
2023-02-19T06:22:35.698Z,37.95
2023-02-19T06:25:41.776Z,36.28
2023-02-19T06:28:49.143Z,38.35
2023-02-19T06:31:54.544Z,37.28
2023-02-19T06:34:59.932Z,39.33
2023-02-19T06:38:04.733Z,40.13
2023-02-19T06:41:11.316Z,41.00
2023-02-19T06:44:17.035Z,43.45
2023-02-19T06:47:25.138Z,45.45
2023-02-19T06:50:30.813Z,54.08
2023-02-19T06:53:35.834Z,51.92
2023-02-19T06:56:44.859Z,51.38
2023-02-19T06:59:51.564Z,47.33
2023-02-19T07:02:57.027Z,49.72
2023-02-19T07:06:02.355Z,46.85
2023-02-19T07:09:09.058Z,44.38
2023-02-19T07:12:14.227Z,45.95
2023-02-19T07:15:19.239Z,46.10
2023-02-19T07:18:24.248Z,46.13
2023-02-19T07:21:30.487Z,43.95
2023-02-19T07:24:35.694Z,44.15
2023-02-19T07:27:41.115Z,44.65
2023-02-19T07:30:46.395Z,43.13
2023-02-19T07:33:52.268Z,42.67
2023-02-19T07:36:57.758Z,38.05
2023-02-19T07:40:03.624Z,42.08
2023-02-19T07:43:08.731Z,40.17
2023-02-19T07:46:14.489Z,43.42
2023-02-19T07:49:19.771Z,42.75
2023-02-19T07:52:25.071Z,44.25
2023-02-19T07:55:32.877Z,46.55
2023-02-19T07:58:38.695Z,46.30
2023-02-19T08:02:02.162Z,48.90
2023-02-19T08:05:07.331Z,47.42
2023-02-19T08:08:14.929Z,49.92
2023-02-19T08:11:38.653Z,51.53
2023-02-19T08:14:43.932Z,51.75
2023-02-19T08:17:48.746Z,51.78
2023-02-19T08:20:56.068Z,55.95
2023-02-19T08:24:01.611Z,56.22
2023-02-19T08:27:07.562Z,51.88
2023-02-19T08:30:12.881Z,54.33
2023-02-19T08:33:21.054Z,54.65
2023-02-19T08:36:26.507Z,55.55
2023-02-19T08:39:32.722Z,51.75
2023-02-19T08:42:37.841Z,53.17
2023-02-19T08:45:47.637Z,55.42
2023-02-19T08:48:52.760Z,53.00
2023-02-19T08:51:58.194Z,56.97
2023-02-19T08:55:05.939Z,61.50
2023-02-19T08:58:11.649Z,56.78
2023-02-19T09:01:19.068Z,57.20
2023-02-19T09:04:24.016Z,59.50
2023-02-19T09:07:29.382Z,59.50
2023-02-19T09:10:34.795Z,59.65
2023-02-19T09:13:40.154Z,57.85
2023-02-19T09:16:45.704Z,57.55
2023-02-19T09:19:52.119Z,57.33
2023-02-19T09:22:59.393Z,56.80
2023-02-19T09:26:08.873Z,58.13
2023-02-19T09:29:15.045Z,59.15
2023-02-19T09:32:20.480Z,57.22
2023-02-19T09:35:25.940Z,60.95
2023-02-19T09:38:31.197Z,60.10
2023-02-19T09:41:38.038Z,61.92
2023-02-19T09:44:48.367Z,60.00
2023-02-19T09:47:58.414Z,65.88
2023-02-19T09:51:04.684Z,64.65
2023-02-19T09:55:31.781Z,68.63
2023-02-19T09:58:50.069Z,65.25
2023-02-19T10:02:03.463Z,64.22
2023-02-19T10:05:14.885Z,64.75
2023-02-19T10:08:22.157Z,61.45
2023-02-19T10:11:28.328Z,66.45
2023-02-19T10:14:42.305Z,67.50
2023-02-19T10:17:47.774Z,68.03
2023-02-19T10:20:53.693Z,68.18
2023-02-19T10:24:04.787Z,68.28
2023-02-19T10:27:15.384Z,72.78
2023-02-19T10:30:25.104Z,72.43
2023-02-19T10:33:30.882Z,70.97
2023-02-19T10:36:40.635Z,73.20
2023-02-19T10:39:49.290Z,72.45
2023-02-19T10:43:00.067Z,71.32
2023-02-19T10:46:08.606Z,69.65
2023-02-19T10:49:28.808Z,66.90
2023-02-19T10:52:36.738Z,70.53
2023-02-19T10:55:41.899Z,71.43
2023-02-19T10:58:47.467Z,71.53
2023-02-19T11:02:19.887Z,66.05
2023-02-19T11:05:25.318Z,69.05
2023-02-19T11:08:34.869Z,68.82
2023-02-19T11:11:40.769Z,72.70
2023-02-19T11:14:46.272Z,69.22
2023-02-19T11:18:08.438Z,71.13
2023-02-19T11:21:33.204Z,69.85
2023-02-19T11:24:40.702Z,66.70
2023-02-19T11:28:21.393Z,66.30
2023-02-19T11:31:35.791Z,72.63
2023-02-19T11:34:41.431Z,70.03
2023-02-19T11:38:01.284Z,67.43
2023-02-19T11:41:22.172Z,70.88
2023-02-19T11:44:46.799Z,69.68
2023-02-19T11:48:29.579Z,67.85
2023-02-19T11:52:27.796Z,73.50
2023-02-19T11:55:48.317Z,68.53
2023-02-19T11:59:22.946Z,69.65
2023-02-19T12:03:05.860Z,69.22
2023-02-19T12:06:27.127Z,69.50
2023-02-19T12:09:51.762Z,66.03
2023-02-19T12:13:09.305Z,71.28
2023-02-19T12:16:39.163Z,70.85
2023-02-19T12:20:23.598Z,68.65
2023-02-19T12:23:43.648Z,67.95
2023-02-19T12:26:54.670Z,73.88
2023-02-19T12:30:29.129Z,66.97
2023-02-19T12:33:46.635Z,66.60
2023-02-19T12:37:04.135Z,71.30
2023-02-19T12:40:15.876Z,70.78
2023-02-19T12:43:23.544Z,66.65
2023-02-19T12:46:54.222Z,68.30
2023-02-19T12:50:23.749Z,71.50
2023-02-19T12:53:55.189Z,72.03
2023-02-19T12:57:13.919Z,68.90
2023-02-19T13:00:31.675Z,65.78
2023-02-19T13:03:49.519Z,66.45
2023-02-19T13:07:14.349Z,68.03
2023-02-19T13:10:42.112Z,70.65
2023-02-19T13:14:01.403Z,66.60
2023-02-19T13:17:41.763Z,66.35
2023-02-19T13:20:49.113Z,64.32
2023-02-19T13:24:02.021Z,66.05
2023-02-19T13:27:13.921Z,67.22
2023-02-19T13:30:29.810Z,64.57
2023-02-19T13:34:13.441Z,65.20
2023-02-19T13:37:20.054Z,64.38
2023-02-19T13:40:35.535Z,62.60
2023-02-19T13:43:43.033Z,65.80
2023-02-19T13:46:50.401Z,60.63
2023-02-19T13:50:07.128Z,62.30
2023-02-19T13:53:44.820Z,60.67
2023-02-19T13:56:50.765Z,59.22
2023-02-19T13:59:58.033Z,58.85
2023-02-19T14:03:37.199Z,55.58
2023-02-19T14:07:04.349Z,57.55
2023-02-19T14:10:14.384Z,55.20
2023-02-19T14:13:51.333Z,58.72
2023-02-19T14:17:28.698Z,55.10
2023-02-19T14:20:45.741Z,55.85
2023-02-19T14:23:57.400Z,56.90
2023-02-19T14:27:03.724Z,55.13
2023-02-19T14:30:13.333Z,55.13
2023-02-19T14:33:25.308Z,55.63
2023-02-19T14:37:10.364Z,57.22
2023-02-19T14:40:27.283Z,56.63
2023-02-19T14:43:34.894Z,57.45
2023-02-19T14:46:50.406Z,59.08
2023-02-19T14:50:00.539Z,57.90
2023-02-19T14:53:08.209Z,59.63
2023-02-19T14:56:26.378Z,57.75
2023-02-19T14:59:31.946Z,57.17
2023-02-19T15:02:43.536Z,54.58
2023-02-19T15:05:59.763Z,53.50
2023-02-19T15:09:07.621Z,53.53
2023-02-19T15:12:25.662Z,52.10
2023-02-19T15:15:35.859Z,52.58
2023-02-19T15:18:46.581Z,54.20
2023-02-19T15:21:52.357Z,53.05
2023-02-19T15:25:02.561Z,52.08
2023-02-19T15:28:25.113Z,51.25
2023-02-19T15:34:36.134Z,48.03
2023-02-19T15:37:42.184Z,52.38
2023-02-19T15:40:49.905Z,50.85
2023-02-19T15:44:28.388Z,51.40
2023-02-19T15:47:39.137Z,50.83
2023-02-19T15:50:49.825Z,49.83
2023-02-19T15:54:04.514Z,48.95
2023-02-19T15:57:19.305Z,52.88
2023-02-19T16:00:34.865Z,49.90
2023-02-19T16:03:40.763Z,52.38
2023-02-19T16:06:58.152Z,53.30
2023-02-19T16:10:21.031Z,54.85
2023-02-19T16:13:32.877Z,55.40
2023-02-19T16:16:42.461Z,57.47
2023-02-19T16:20:00.387Z,55.13
2023-02-19T16:23:15.185Z,60.83
2023-02-19T16:26:21.608Z,57.03
2023-02-19T16:29:32.405Z,56.97
2023-02-19T16:32:37.716Z,54.70
2023-02-19T16:35:45.321Z,62.60
2023-02-19T16:39:08.641Z,60.42
2023-02-19T16:42:14.805Z,61.58
2023-02-19T16:45:19.981Z,63.90
2023-02-19T16:48:26.109Z,64.43
2023-02-19T16:51:31.597Z,66.72
2023-02-19T16:54:37.300Z,72.18
2023-02-19T16:57:42.828Z,78.30
2023-02-19T17:00:48.570Z,71.93
2023-02-19T17:04:00.301Z,68.88
2023-02-19T17:07:06.015Z,69.63
2023-02-19T17:10:16.972Z,68.70
2023-02-19T17:13:22.741Z,66.03
2023-02-19T17:16:40.646Z,69.50
2023-02-19T17:19:46.254Z,65.93
2023-02-19T17:22:51.673Z,71.88
2023-02-19T17:25:57.713Z,68.43
2023-02-19T17:29:06.781Z,71.65
2023-02-19T17:32:12.776Z,75.45
2023-02-19T17:35:18.387Z,76.30
2023-02-19T17:38:23.897Z,74.32
2023-02-19T17:41:29.798Z,69.40
2023-02-19T17:44:35.355Z,68.15
2023-02-19T17:47:41.134Z,67.28
2023-02-19T17:50:49.522Z,66.32
2023-02-19T17:53:54.797Z,65.03
2023-02-19T17:57:00.245Z,69.40
2023-02-19T18:00:06.773Z,70.30
2023-02-19T18:03:17.874Z,66.47
2023-02-19T18:06:23.264Z,68.57
2023-02-19T18:09:29.333Z,72.05
2023-02-19T18:12:34.785Z,74.20
2023-02-19T18:15:40.264Z,73.07
2023-02-19T18:18:45.857Z,69.35
2023-02-19T18:21:52.070Z,75.55
2023-02-19T18:24:57.313Z,76.20
2023-02-19T18:28:03.379Z,77.03
2023-02-19T18:31:09.308Z,79.03
2023-02-19T18:34:19.687Z,79.22
2023-02-19T18:37:27.151Z,76.78
2023-02-19T18:40:32.772Z,79.95
2023-02-19T18:43:38.401Z,80.75
2023-02-19T18:46:44.130Z,86.40
2023-02-19T18:49:50.710Z,85.00
2023-02-19T18:52:56.367Z,84.30
2023-02-19T18:56:02.267Z,83.03
2023-02-19T18:59:07.701Z,85.68
2023-02-19T19:02:13.981Z,83.90
2023-02-19T19:05:23.317Z,84.13
2023-02-19T19:08:30.664Z,81.50
2023-02-19T19:11:36.888Z,85.50
2023-02-19T19:14:42.620Z,83.60
2023-02-19T19:17:48.471Z,86.28
2023-02-19T19:20:56.941Z,85.60
2023-02-19T19:24:02.742Z,84.35
2023-02-19T19:27:08.282Z,81.45
2023-02-19T19:30:14.537Z,84.68
2023-02-19T19:33:20.387Z,81.38
2023-02-19T19:36:25.914Z,81.32
2023-02-19T19:39:31.236Z,75.68
2023-02-19T19:42:36.940Z,77.50
2023-02-19T19:45:42.368Z,80.72
2023-02-19T19:48:50.572Z,80.65
2023-02-19T19:52:01.326Z,74.43
2023-02-19T19:55:07.297Z,74.15
2023-02-19T19:58:12.803Z,74.70
2023-02-19T20:01:21.428Z,71.15
2023-02-19T20:04:27.654Z,68.72
2023-02-19T20:07:34.228Z,73.30
2023-02-19T20:10:40.234Z,73.30
2023-02-19T20:13:46.126Z,79.35
2023-02-19T20:16:52.848Z,73.78
2023-02-19T20:19:58.664Z,76.65
2023-02-19T20:23:04.249Z,77.25
2023-02-19T20:26:09.776Z,77.18
2023-02-19T20:29:15.349Z,79.63
2023-02-19T20:32:21.243Z,77.60
2023-02-19T20:35:29.075Z,77.55
2023-02-19T20:38:34.519Z,80.65
2023-02-19T20:41:39.616Z,82.70
2023-02-19T20:44:45.318Z,81.72
2023-02-19T20:47:50.975Z,78.75
2023-02-19T20:51:02.204Z,77.68
2023-02-19T20:54:07.641Z,79.28
2023-02-19T20:57:14.798Z,77.28
2023-02-19T21:00:20.913Z,78.93
2023-02-19T21:03:26.837Z,76.60
2023-02-19T21:06:32.437Z,74.82
2023-02-19T21:09:37.822Z,73.70
2023-02-19T21:12:43.289Z,76.60
2023-02-19T21:15:49.064Z,80.05
2023-02-19T21:18:54.683Z,79.90
2023-02-19T21:22:00.077Z,82.13
2023-02-19T21:25:06.056Z,78.75
2023-02-19T21:28:11.424Z,80.10
2023-02-19T21:31:17.067Z,78.90
2023-02-19T21:34:25.708Z,81.10
2023-02-19T21:37:31.443Z,79.28
2023-02-19T21:40:38.238Z,78.43
2023-02-19T21:43:43.306Z,78.40
2023-02-19T21:46:49.082Z,77.30
2023-02-19T21:49:54.474Z,80.70
2023-02-19T21:53:00.873Z,82.13
2023-02-19T21:56:06.418Z,76.57
2023-02-19T21:59:12.658Z,78.57
2023-02-19T22:02:20.374Z,80.00
2023-02-19T22:05:26.288Z,82.20
2023-02-19T22:08:31.529Z,78.03
2023-02-19T22:11:37.030Z,80.32
2023-02-19T22:14:42.458Z,77.53
2023-02-19T22:17:48.011Z,82.68
2023-02-19T22:20:53.397Z,79.90
2023-02-19T22:23:59.656Z,78.53
2023-02-19T22:27:05.071Z,78.25
2023-02-19T22:30:11.567Z,76.05
2023-02-19T22:33:17.075Z,79.97
2023-02-19T22:36:27.943Z,77.43
2023-02-19T22:39:33.760Z,78.13
2023-02-19T22:42:39.571Z,79.38
2023-02-19T22:45:45.585Z,79.53
2023-02-19T22:48:51.255Z,80.45
2023-02-19T22:52:01.806Z,78.00
2023-02-19T22:55:07.483Z,78.18
2023-02-19T22:58:13.089Z,77.68
2023-02-19T23:01:19.123Z,75.43
2023-02-19T23:04:26.541Z,77.32
2023-02-19T23:07:31.888Z,81.32
2023-02-19T23:10:37.320Z,78.45
2023-02-19T23:13:43.070Z,82.05
2023-02-19T23:16:48.713Z,78.60
2023-02-19T23:19:53.896Z,81.32
2023-02-19T23:22:59.802Z,82.88
2023-02-19T23:26:05.579Z,79.00
2023-02-19T23:29:10.975Z,77.55
2023-02-19T23:32:21.074Z,77.88
2023-02-19T23:35:26.939Z,75.70
2023-02-19T23:38:32.386Z,74.20
2023-02-19T23:41:38.335Z,75.75
2023-02-19T23:44:47.478Z,76.95
2023-02-19T23:47:53.194Z,78.45
2023-02-19T23:50:58.752Z,73.28
2023-02-19T23:54:05.058Z,74.57
2023-02-19T23:57:10.878Z,71.65
